sensor_id;sensor_type;location;lat;lon;timestamp;pressure;altitude;pressure_sealevel;temperature;humidity
48800;BME280;34611;47.964;7.982;2023-06-10T00:01:53;96332.13;;;15.04;62.55
48800;BME280;34611;47.964;7.982;2023-06-10T00:08:56;96332.78;;;15.06;62.54
48800;BME280;34611;47.964;7.982;2023-06-10T00:15:56;96331.16;;;15.05;62.53
48800;BME280;34611;47.964;7.982;2023-06-10T00:23:00;96326.72;;;15.05;62.54
48800;BME280;34611;47.964;7.982;2023-06-10T00:30:02;96332.78;;;15.06;62.53
48800;BME280;34611;47.964;7.982;2023-06-10T00:37:05;96333.63;;;15.06;62.58
48800;BME280;34611;47.964;7.982;2023-06-10T00:44:05;96338.84;;;15.06;62.59
48800;BME280;34611;47.964;7.982;2023-06-10T00:51:06;96335.41;;;15.06;62.66
48800;BME280;34611;47.964;7.982;2023-06-10T00:58:09;96332.78;;;15.06;62.52
48800;BME280;34611;47.964;7.982;2023-06-10T01:05:09;96343.25;;;15.06;62.66
48800;BME280;34611;47.964;7.982;2023-06-10T01:12:16;96330.16;;;15.06;62.61
48800;BME280;34611;47.964;7.982;2023-06-10T01:19:18;96338.19;;;15.04;62.76
48800;BME280;34611;47.964;7.982;2023-06-10T01:26:19;96347.69;;;15.05;62.63
48800;BME280;34611;47.964;7.982;2023-06-10T01:33:31;96351.94;;;15.06;62.61
48800;BME280;34611;47.964;7.982;2023-06-10T01:40:33;96357.16;;;15.06;62.70
48800;BME280;34611;47.964;7.982;2023-06-10T01:47:34;96360.59;;;15.07;62.59
48800;BME280;34611;47.964;7.982;2023-06-10T01:54:34;96363.38;;;15.05;62.61
48800;BME280;34611;47.964;7.982;2023-06-10T02:01:34;96366.81;;;15.06;62.61
48800;BME280;34611;47.964;7.982;2023-06-10T02:08:36;96364.19;;;15.06;62.67
48800;BME280;34611;47.964;7.982;2023-06-10T02:15:36;96365.84;;;15.07;62.67
48800;BME280;34611;47.964;7.982;2023-06-10T02:22:36;96364.19;;;15.06;62.72
48800;BME280;34611;47.964;7.982;2023-06-10T02:29:37;96367.66;;;15.06;62.79
48800;BME280;34611;47.964;7.982;2023-06-10T02:36:38;96356.53;;;15.04;62.61
48800;BME280;34611;47.964;7.982;2023-06-10T02:43:38;96365.84;;;15.07;62.68
48800;BME280;34611;47.964;7.982;2023-06-10T02:50:40;96367.66;;;15.06;62.75
48800;BME280;34611;47.964;7.982;2023-06-10T02:58:03;96373.69;;;15.07;62.71
48800;BME280;34611;47.964;7.982;2023-06-10T03:05:05;96374.66;;;15.06;62.82
48800;BME280;34611;47.964;7.982;2023-06-10T03:12:06;96375.50;;;15.06;62.67
48800;BME280;34611;47.964;7.982;2023-06-10T03:19:12;96379.91;;;15.06;62.71
48800;BME280;34611;47.964;7.982;2023-06-10T03:26:16;96385.13;;;15.06;62.71
48800;BME280;34611;47.964;7.982;2023-06-10T03:33:19;96384.31;;;15.05;62.87
48800;BME280;34611;47.964;7.982;2023-06-10T03:40:20;96388.59;;;15.06;62.85
48800;BME280;34611;47.964;7.982;2023-06-10T03:47:21;96396.44;;;15.06;62.70
48800;BME280;34611;47.964;7.982;2023-06-10T03:54:22;96399.88;;;15.07;62.78
48800;BME280;34611;47.964;7.982;2023-06-10T04:01:22;96400.84;;;15.06;62.54
48800;BME280;34611;47.964;7.982;2023-06-10T04:08:24;96398.22;;;15.06;62.83
48800;BME280;34611;47.964;7.982;2023-06-10T04:15:25;96400.84;;;15.06;62.80
48800;BME280;34611;47.964;7.982;2023-06-10T04:22:25;96407.72;;;15.07;62.70
48800;BME280;34611;47.964;7.982;2023-06-10T04:29:26;96417.38;;;15.06;62.79
48800;BME280;34611;47.964;7.982;2023-06-10T04:36:27;96416.53;;;15.06;62.73
48800;BME280;34611;47.964;7.982;2023-06-10T04:43:29;96415.56;;;15.07;62.80
48800;BME280;34611;47.964;7.982;2023-06-10T04:50:32;96424.41;;;15.06;62.86
48800;BME280;34611;47.964;7.982;2023-06-10T04:57:33;96420.81;;;15.07;62.76
48800;BME280;34611;47.964;7.982;2023-06-10T05:04:33;96425.22;;;15.06;62.80
48800;BME280;34611;47.964;7.982;2023-06-10T05:11:33;96428.66;;;15.07;62.89
48800;BME280;34611;47.964;7.982;2023-06-10T05:18:33;96434.72;;;15.07;62.79
48800;BME280;34611;47.964;7.982;2023-06-10T05:25:34;96447.78;;;15.07;62.75
48800;BME280;34611;47.964;7.982;2023-06-10T05:32:35;96437.47;;;15.06;62.92
48800;BME280;34611;47.964;7.982;2023-06-10T05:39:35;96439.13;;;15.07;62.94
48800;BME280;34611;47.964;7.982;2023-06-10T05:46:37;96444.38;;;15.07;62.85
48800;BME280;34611;47.964;7.982;2023-06-10T05:53:37;96444.38;;;15.07;62.79
48800;BME280;34611;47.964;7.982;2023-06-10T06:00:39;96448.78;;;15.06;62.89
48800;BME280;34611;47.964;7.982;2023-06-10T06:07:39;96439.13;;;15.07;62.86
48800;BME280;34611;47.964;7.982;2023-06-10T06:14:39;96438.31;;;15.06;62.87
48800;BME280;34611;47.964;7.982;2023-06-10T06:21:40;96430.47;;;15.06;62.95
48800;BME280;34611;47.964;7.982;2023-06-10T06:28:40;96439.13;;;15.07;62.89
48800;BME280;34611;47.964;7.982;2023-06-10T06:35:40;96428.66;;;15.07;62.86
48800;BME280;34611;47.964;7.982;2023-06-10T06:42:41;96420.00;;;15.06;62.87
48800;BME280;34611;47.964;7.982;2023-06-10T06:50:16;96437.47;;;15.06;62.94
48800;BME280;34611;47.964;7.982;2023-06-10T06:57:17;96444.38;;;15.07;62.96
48800;BME280;34611;47.964;7.982;2023-06-10T07:04:17;96443.56;;;15.06;63.02
48800;BME280;34611;47.964;7.982;2023-06-10T07:11:19;96438.31;;;15.06;63.02
48800;BME280;34611;47.964;7.982;2023-06-10T07:18:20;96437.31;;;15.07;62.88
48800;BME280;34611;47.964;7.982;2023-06-10T07:25:20;96431.28;;;15.07;62.92
48800;BME280;34611;47.964;7.982;2023-06-10T07:32:20;96428.66;;;15.07;62.98
48800;BME280;34611;47.964;7.982;2023-06-10T07:39:22;96429.63;;;15.06;62.92
48800;BME280;34611;47.964;7.982;2023-06-10T07:46:22;96429.47;;;15.07;63.06
48800;BME280;34611;47.964;7.982;2023-06-10T07:53:23;96423.44;;;15.07;62.88
48800;BME280;34611;47.964;7.982;2023-06-10T08:00:23;96424.22;;;15.07;63.03
48800;BME280;34611;47.964;7.982;2023-06-10T08:07:23;96427.66;;;15.08;63.11
48800;BME280;34611;47.964;7.982;2023-06-10T08:14:24;96429.47;;;15.07;62.89
48800;BME280;34611;47.964;7.982;2023-06-10T08:21:24;96431.28;;;15.07;63.03
48800;BME280;34611;47.964;7.982;2023-06-10T08:28:24;96421.78;;;15.06;62.92
48800;BME280;34611;47.964;7.982;2023-06-10T08:35:25;96429.47;;;15.07;62.98
48800;BME280;34611;47.964;7.982;2023-06-10T08:49:26;96423.44;;;15.07;63.08
48800;BME280;34611;47.964;7.982;2023-06-10T08:56:26;96425.03;;;15.08;63.09
48800;BME280;34611;47.964;7.982;2023-06-10T09:03:28;96425.03;;;15.08;63.02
48800;BME280;34611;47.964;7.982;2023-06-10T09:10:28;96425.03;;;15.08;62.96
48800;BME280;34611;47.964;7.982;2023-06-10T09:17:29;96420.66;;;15.08;63.06
48800;BME280;34611;47.964;7.982;2023-06-10T09:24:29;96419.00;;;15.07;63.00
48800;BME280;34611;47.964;7.982;2023-06-10T09:31:31;96417.19;;;15.08;62.98
48800;BME280;34611;47.964;7.982;2023-06-10T09:38:34;96418.84;;;15.09;63.06
48800;BME280;34611;47.964;7.982;2023-06-10T09:45:34;96416.22;;;15.09;63.01
48800;BME280;34611;47.964;7.982;2023-06-10T09:52:35;96414.56;;;15.08;62.97
48800;BME280;34611;47.964;7.982;2023-06-10T09:59:37;96419.00;;;15.07;63.04
48800;BME280;34611;47.964;7.982;2023-06-10T10:06:37;96414.56;;;15.08;63.04
48800;BME280;34611;47.964;7.982;2023-06-10T10:13:38;96412.94;;;15.07;63.17
48800;BME280;34611;47.964;7.982;2023-06-10T10:20:43;96413.59;;;15.09;63.07
48800;BME280;34611;47.964;7.982;2023-06-10T10:35:08;96411.16;;;15.07;63.08
48800;BME280;34611;47.964;7.982;2023-06-10T10:42:09;96415.41;;;15.08;63.07
48800;BME280;34611;47.964;7.982;2023-06-10T10:49:11;96410.19;;;15.08;63.17
48800;BME280;34611;47.964;7.982;2023-06-10T10:56:12;96410.19;;;15.08;63.13
48800;BME280;34611;47.964;7.982;2023-06-10T11:03:13;96398.88;;;15.08;63.07
48800;BME280;34611;47.964;7.982;2023-06-10T11:10:14;96398.88;;;15.08;63.06
48800;BME280;34611;47.964;7.982;2023-06-10T11:17:18;96405.75;;;15.09;63.08
48800;BME280;34611;47.964;7.982;2023-06-10T11:24:19;96393.63;;;15.08;63.13
48800;BME280;34611;47.964;7.982;2023-06-10T11:31:23;96393.97;;;15.13;62.97
48800;BME280;34611;47.964;7.982;2023-06-10T11:38:24;96387.44;;;15.09;63.19
48800;BME280;34611;47.964;7.982;2023-06-10T11:45:24;96378.56;;;15.10;63.19
48800;BME280;34611;47.964;7.982;2023-06-10T11:52:33;96387.38;;;15.25;62.92
48800;BME280;34611;47.964;7.982;2023-06-10T11:59:38;96381.03;;;15.11;63.28
48800;BME280;34611;47.964;7.982;2023-06-10T12:06:43;96388.88;;;15.11;63.38
48800;BME280;34611;47.964;7.982;2023-06-10T12:13:47;96382.84;;;15.11;63.36
48800;BME280;34611;47.964;7.982;2023-06-10T12:20:50;96378.56;;;15.10;63.48
48800;BME280;34611;47.964;7.982;2023-06-10T12:27:56;96374.16;;;15.10;63.22
48800;BME280;34611;47.964;7.982;2023-06-10T12:35:03;96372.38;;;15.11;63.22
48800;BME280;34611;47.964;7.982;2023-06-10T12:42:06;96369.75;;;15.11;63.39
48800;BME280;34611;47.964;7.982;2023-06-10T12:49:18;96383.66;;;15.11;63.36
48800;BME280;34611;47.964;7.982;2023-06-10T12:56:19;96362.69;;;15.11;63.27
48800;BME280;34611;47.964;7.982;2023-06-10T13:03:21;96356.66;;;15.11;63.31
48800;BME280;34611;47.964;7.982;2023-06-10T13:10:21;96355.00;;;15.10;63.29
48800;BME280;34611;47.964;7.982;2023-06-10T13:17:24;96358.59;;;15.17;64.05
48800;BME280;34611;47.964;7.982;2023-06-10T13:24:25;96350.19;;;15.30;63.52
48800;BME280;34611;47.964;7.982;2023-06-10T13:31:27;96347.63;;;15.22;63.66
48800;BME280;34611;47.964;7.982;2023-06-10T13:38:27;96347.75;;;15.28;63.69
48800;BME280;34611;47.964;7.982;2023-06-10T13:45:27;96336.97;;;15.23;63.82
48800;BME280;34611;47.964;7.982;2023-06-10T13:52:28;96320.63;;;15.21;64.03
48800;BME280;34611;47.964;7.982;2023-06-10T13:59:28;96329.44;;;15.20;64.09
48800;BME280;34611;47.964;7.982;2023-06-10T14:06:28;96317.34;;;15.19;63.91
48800;BME280;34611;47.964;7.982;2023-06-10T14:13:28;96313.75;;;15.20;63.93
48800;BME280;34611;47.964;7.982;2023-06-10T14:20:29;96312.13;;;15.19;63.95
48800;BME280;34611;47.964;7.982;2023-06-10T14:27:31;96308.66;;;15.18;63.85
48800;BME280;34611;47.964;7.982;2023-06-10T14:34:31;96296.41;;;15.19;63.82
48800;BME280;34611;47.964;7.982;2023-06-10T14:41:33;96288.56;;;15.19;63.87
48800;BME280;34611;47.964;7.982;2023-06-10T14:48:33;96290.34;;;15.18;63.97
48800;BME280;34611;47.964;7.982;2023-06-10T14:55:34;96284.28;;;15.18;63.77
48800;BME280;34611;47.964;7.982;2023-06-10T15:02:34;96279.88;;;15.18;63.82
48800;BME280;34611;47.964;7.982;2023-06-10T15:09:34;96275.13;;;15.22;63.84
48800;BME280;34611;47.964;7.982;2023-06-10T15:16:35;96266.78;;;15.18;64.01
48800;BME280;34611;47.964;7.982;2023-06-10T15:23:35;96269.41;;;15.18;63.97
48800;BME280;34611;47.964;7.982;2023-06-10T15:30:35;96271.19;;;15.18;63.77
48800;BME280;34611;47.964;7.982;2023-06-10T15:37:37;96286.66;;;15.36;64.11
48800;BME280;34611;47.964;7.982;2023-06-10T15:44:37;96281.00;;;15.24;63.97
48800;BME280;34611;47.964;7.982;2023-06-10T15:51:37;96272.50;;;15.22;64.06
48800;BME280;34611;47.964;7.982;2023-06-10T15:58:38;96264.63;;;15.22;64.09
48800;BME280;34611;47.964;7.982;2023-06-10T16:05:38;96263.66;;;15.23;64.10
48800;BME280;34611;47.964;7.982;2023-06-10T16:12:39;96259.25;;;15.47;63.63
48800;BME280;34611;47.964;7.982;2023-06-10T16:19:39;96262.13;;;15.29;64.11
48800;BME280;34611;47.964;7.982;2023-06-10T16:26:39;96246.63;;;15.27;64.14
48800;BME280;34611;47.964;7.982;2023-06-10T16:33:40;96262.34;;;15.27;64.28
48800;BME280;34611;47.964;7.982;2023-06-10T16:40:40;96265.94;;;15.26;64.33
48800;BME280;34611;47.964;7.982;2023-06-10T16:47:40;96275.75;;;15.24;64.25
48800;BME280;34611;47.964;7.982;2023-06-10T16:54:41;96278.38;;;15.24;64.33
48800;BME280;34611;47.964;7.982;2023-06-10T17:01:41;96284.25;;;15.26;64.34
48800;BME280;34611;47.964;7.982;2023-06-10T17:08:41;96283.59;;;15.24;64.35
48800;BME280;34611;47.964;7.982;2023-06-10T17:15:42;96288.84;;;15.24;64.33
48800;BME280;34611;47.964;7.982;2023-06-10T17:22:42;96295.72;;;15.25;64.20
48800;BME280;34611;47.964;7.982;2023-06-10T17:29:42;96301.78;;;15.26;64.19
48800;BME280;34611;47.964;7.982;2023-06-10T17:36:42;96312.25;;;15.26;64.17
48800;BME280;34611;47.964;7.982;2023-06-10T17:43:43;96309.78;;;15.24;64.20
48800;BME280;34611;47.964;7.982;2023-06-10T17:50:45;96311.44;;;15.25;64.13
48800;BME280;34611;47.964;7.982;2023-06-10T17:57:45;96317.66;;;15.24;64.26
48800;BME280;34611;47.964;7.982;2023-06-10T18:04:45;96333.34;;;15.24;64.17
48800;BME280;34611;47.964;7.982;2023-06-10T18:11:45;96342.88;;;15.25;64.31
48800;BME280;34611;47.964;7.982;2023-06-10T18:18:46;96346.44;;;15.24;64.24
48800;BME280;34611;47.964;7.982;2023-06-10T18:25:47;96350.88;;;15.24;64.17
48800;BME280;34611;47.964;7.982;2023-06-10T18:32:47;96367.41;;;15.24;64.28
48800;BME280;34611;47.964;7.982;2023-06-10T18:39:47;96379.53;;;15.25;64.29
48800;BME280;34611;47.964;7.982;2023-06-10T18:46:48;96373.44;;;15.25;64.18
48800;BME280;34611;47.964;7.982;2023-06-10T18:53:48;96373.44;;;15.25;64.16
48800;BME280;34611;47.964;7.982;2023-06-10T19:00:48;96390.97;;;15.24;64.26
48800;BME280;34611;47.964;7.982;2023-06-10T19:07:48;96396.19;;;15.24;64.15
48800;BME280;34611;47.964;7.982;2023-06-10T19:14:49;96398.00;;;15.24;64.15
48800;BME280;34611;47.964;7.982;2023-06-10T19:21:49;96396.19;;;15.24;64.28
48800;BME280;34611;47.964;7.982;2023-06-10T19:28:49;96403.25;;;15.24;64.24
48800;BME280;34611;47.964;7.982;2023-06-10T19:35:50;96407.69;;;15.23;64.15
48800;BME280;34611;47.964;7.982;2023-06-10T19:42:50;96420.78;;;15.23;64.15
48800;BME280;34611;47.964;7.982;2023-06-10T19:49:51;96433.88;;;15.23;64.28
48800;BME280;34611;47.964;7.982;2023-06-10T19:56:51;96433.88;;;15.23;64.29
48800;BME280;34611;47.964;7.982;2023-06-10T20:03:51;96447.75;;;15.24;64.12
48800;BME280;34611;47.964;7.982;2023-06-10T20:10:51;96447.75;;;15.24;64.15
48800;BME280;34611;47.964;7.982;2023-06-10T20:17:52;96461.66;;;15.24;64.23
48800;BME280;34611;47.964;7.982;2023-06-10T20:24:52;96460.03;;;15.23;64.32
48800;BME280;34611;47.964;7.982;2023-06-10T20:31:52;96465.28;;;15.23;64.12
48800;BME280;34611;47.964;7.982;2023-06-10T20:38:53;96472.28;;;15.23;64.28
48800;BME280;34611;47.964;7.982;2023-06-10T20:45:53;96478.38;;;15.23;64.24
48800;BME280;34611;47.964;7.982;2023-06-10T20:52:53;96482.63;;;15.24;64.24
48800;BME280;34611;47.964;7.982;2023-06-10T20:59:56;96484.59;;;15.22;64.27
48800;BME280;34611;47.964;7.982;2023-06-10T21:06:56;96495.88;;;15.23;64.24
48800;BME280;34611;47.964;7.982;2023-06-10T21:13:56;96501.09;;;15.23;64.20
48800;BME280;34611;47.964;7.982;2023-06-10T21:20:57;96491.47;;;15.23;64.21
48800;BME280;34611;47.964;7.982;2023-06-10T21:27:57;96497.50;;;15.24;64.20
48800;BME280;34611;47.964;7.982;2023-06-10T21:34:57;96495.88;;;15.23;64.32
48800;BME280;34611;47.964;7.982;2023-06-10T21:41:57;96497.50;;;15.24;64.31
48800;BME280;34611;47.964;7.982;2023-06-10T21:48:58;96494.09;;;15.23;64.27
48800;BME280;34611;47.964;7.982;2023-06-10T21:55:59;96499.31;;;15.23;64.19
48800;BME280;34611;47.964;7.982;2023-06-10T22:02:59;96504.56;;;15.23;64.25
48800;BME280;34611;47.964;7.982;2023-06-10T22:09:59;96503.56;;;15.24;64.21
48800;BME280;34611;47.964;7.982;2023-06-10T22:17:00;96500.94;;;15.24;64.16
48800;BME280;34611;47.964;7.982;2023-06-10T22:24:00;96507.00;;;15.25;64.23
48800;BME280;34611;47.964;7.982;2023-06-10T22:31:02;96501.94;;;15.23;64.25
48800;BME280;34611;47.964;7.982;2023-06-10T22:38:03;96500.94;;;15.24;64.23
48800;BME280;34611;47.964;7.982;2023-06-10T22:45:03;96499.13;;;15.25;64.12
48800;BME280;34611;47.964;7.982;2023-06-10T22:52:04;96484.41;;;15.24;64.31
48800;BME280;34611;47.964;7.982;2023-06-10T22:59:05;96496.69;;;15.23;64.23
48800;BME280;34611;47.964;7.982;2023-06-10T23:06:05;96494.91;;;15.24;64.24
48800;BME280;34611;47.964;7.982;2023-06-10T23:13:05;96497.50;;;15.24;64.22
48800;BME280;34611;47.964;7.982;2023-06-10T23:20:05;96497.50;;;15.24;64.31
48800;BME280;34611;47.964;7.982;2023-06-10T23:27:07;96508.00;;;15.24;64.37
48800;BME280;34611;47.964;7.982;2023-06-10T23:34:10;96508.00;;;15.24;64.31
48800;BME280;34611;47.964;7.982;2023-06-10T23:41:10;96507.19;;;15.23;64.21
48800;BME280;34611;47.964;7.982;2023-06-10T23:48:10;96508.00;;;15.24;64.27
48800;BME280;34611;47.964;7.982;2023-06-10T23:55:11;96517.47;;;15.25;64.32
